createdAt,value
2019-05-05T00:00:37.951Z,1012.40
2019-05-05T00:01:37.931Z,1012.35
2019-05-05T00:02:37.949Z,1012.38
2019-05-05T00:03:37.911Z,1012.40
2019-05-05T00:04:37.911Z,1012.37
2019-05-05T00:05:37.901Z,1012.41
2019-05-05T00:06:37.878Z,1012.37
2019-05-05T00:07:37.911Z,1012.38
2019-05-05T00:08:37.854Z,1012.31
2019-05-05T00:09:37.841Z,1012.47
2019-05-05T00:10:37.831Z,1012.46
2019-05-05T00:11:37.852Z,1012.41
2019-05-05T00:12:37.820Z,1012.37
2019-05-05T00:13:37.813Z,1012.35
2019-05-05T00:14:38.665Z,1012.43
2019-05-05T00:15:37.779Z,1012.43
2019-05-05T00:16:38.188Z,1012.46
2019-05-05T00:17:37.757Z,1012.50
2019-05-05T00:18:37.763Z,1012.45
2019-05-05T00:19:37.751Z,1012.45
2019-05-05T00:20:37.739Z,1012.44
2019-05-05T00:21:37.746Z,1012.41
2019-05-05T00:22:38.677Z,1012.49
2019-05-05T00:23:37.713Z,1012.49
2019-05-05T00:24:38.674Z,1012.52
2019-05-05T00:25:37.676Z,1012.49
2019-05-05T00:26:37.669Z,1012.52
2019-05-05T00:27:37.651Z,1012.54
2019-05-05T00:28:37.649Z,1012.52
2019-05-05T00:29:37.646Z,1012.59
2019-05-05T00:30:37.626Z,1012.58
2019-05-05T00:31:37.680Z,1012.55
2019-05-05T00:32:37.612Z,1012.56
2019-05-05T00:33:37.598Z,1012.60
2019-05-05T00:34:38.170Z,1012.61
2019-05-05T00:35:37.567Z,1012.55
2019-05-05T00:36:37.583Z,1012.58
2019-05-05T00:37:37.546Z,1012.57
2019-05-05T00:38:37.529Z,1012.58
2019-05-05T00:39:37.525Z,1012.62
2019-05-05T00:40:37.528Z,1012.59
2019-05-05T00:41:37.707Z,1012.66
2019-05-05T00:42:38.167Z,1012.68
2019-05-05T00:43:37.519Z,1012.56
2019-05-05T00:44:37.497Z,1012.65
2019-05-05T00:45:38.169Z,1012.66
2019-05-05T00:46:37.465Z,1012.60
2019-05-05T00:47:38.176Z,1012.62
2019-05-05T00:48:37.438Z,1012.59
2019-05-05T00:49:46.309Z,1012.63
2019-05-05T00:50:37.408Z,1012.54
2019-05-05T00:51:37.414Z,1012.58
2019-05-05T00:52:37.687Z,1012.60
2019-05-05T00:53:37.377Z,1012.61
2019-05-05T00:54:37.390Z,1012.56
2019-05-05T00:55:37.355Z,1012.56
2019-05-05T00:56:38.169Z,1012.64
2019-05-05T00:57:37.347Z,1012.65
2019-05-05T00:58:37.321Z,1012.61
2019-05-05T00:59:37.325Z,1012.60
2019-05-05T01:00:37.300Z,1012.61
2019-05-05T01:01:37.294Z,1012.59
2019-05-05T01:02:37.688Z,1012.65
2019-05-05T01:03:38.168Z,1012.67
2019-05-05T01:04:37.273Z,1012.73
2019-05-05T01:05:37.256Z,1012.68
2019-05-05T01:06:38.169Z,1012.70
2019-05-05T01:07:37.242Z,1012.64
2019-05-05T01:08:37.223Z,1012.68
2019-05-05T01:09:37.214Z,1012.70
2019-05-05T01:10:37.189Z,1012.68
2019-05-05T01:11:37.191Z,1012.72
2019-05-05T01:12:37.703Z,1012.72
2019-05-05T01:13:37.162Z,1012.71
2019-05-05T01:14:37.163Z,1012.71
2019-05-05T01:15:37.136Z,1012.77
2019-05-05T01:16:37.130Z,1012.73
2019-05-05T01:17:37.182Z,1012.71
2019-05-05T01:18:37.104Z,1012.70
2019-05-05T01:19:37.112Z,1012.74
2019-05-05T01:20:37.672Z,1012.68
2019-05-05T01:21:37.072Z,1012.76
2019-05-05T01:22:37.076Z,1012.70
2019-05-05T01:23:37.055Z,1012.74
2019-05-05T01:24:37.057Z,1012.70
2019-05-05T01:25:37.034Z,1012.75
2019-05-05T01:26:37.028Z,1012.74
2019-05-05T01:27:37.021Z,1012.74
2019-05-05T01:28:37.006Z,1012.76
2019-05-05T01:29:36.997Z,1012.78
2019-05-05T01:30:36.973Z,1012.76
2019-05-05T01:31:36.980Z,1012.76
2019-05-05T01:32:36.964Z,1012.81
2019-05-05T01:33:37.183Z,1012.81
2019-05-05T01:34:36.944Z,1012.81
2019-05-05T01:35:36.938Z,1012.84
2019-05-05T01:36:36.914Z,1012.86
2019-05-05T01:37:37.670Z,1012.86
2019-05-05T01:38:36.906Z,1012.88
2019-05-05T01:39:36.893Z,1012.85
2019-05-05T01:40:36.880Z,1012.92
2019-05-05T01:41:36.853Z,1012.81
2019-05-05T01:42:37.672Z,1012.84
2019-05-05T01:43:37.184Z,1012.88
2019-05-05T01:44:36.824Z,1012.89
2019-05-05T01:45:37.704Z,1012.82
2019-05-05T01:46:36.831Z,1012.86
2019-05-05T01:47:37.672Z,1012.89
2019-05-05T01:48:37.179Z,1012.86
2019-05-05T01:49:36.770Z,1012.88
2019-05-05T01:50:36.770Z,1012.94
2019-05-05T01:51:36.755Z,1012.85
2019-05-05T01:52:36.749Z,1012.89
2019-05-05T01:53:36.741Z,1012.90
2019-05-05T01:54:36.712Z,1012.89
2019-05-05T01:55:36.718Z,1012.93
2019-05-05T01:56:36.692Z,1012.91
2019-05-05T01:57:36.685Z,1012.93
2019-05-05T01:58:36.704Z,1012.93
2019-05-05T01:59:36.659Z,1012.91
2019-05-05T02:00:36.662Z,1012.89
2019-05-05T02:01:37.174Z,1012.98
2019-05-05T02:02:37.174Z,1012.94
2019-05-05T02:03:36.644Z,1012.96
2019-05-05T02:04:36.623Z,1012.97
2019-05-05T02:05:36.607Z,1012.95
2019-05-05T02:06:36.584Z,1012.89
2019-05-05T02:07:36.570Z,1012.98
2019-05-05T02:08:36.563Z,1012.96
2019-05-05T02:09:36.575Z,1012.94
2019-05-05T02:10:36.544Z,1012.86
2019-05-05T02:11:36.582Z,1012.95
2019-05-05T02:12:36.539Z,1012.91
2019-05-05T02:13:36.506Z,1012.92
2019-05-05T02:14:36.510Z,1012.88
2019-05-05T02:15:36.484Z,1012.86
2019-05-05T02:16:36.480Z,1012.83
2019-05-05T02:17:37.175Z,1012.86
2019-05-05T02:18:36.455Z,1012.85
2019-05-05T02:19:36.449Z,1012.85
2019-05-05T02:20:36.438Z,1012.87
2019-05-05T02:21:36.421Z,1012.84
2019-05-05T02:22:36.407Z,1012.79
2019-05-05T02:23:36.413Z,1012.77
2019-05-05T02:24:36.429Z,1012.82
2019-05-05T02:25:36.387Z,1012.83
2019-05-05T02:26:36.373Z,1012.81
2019-05-05T02:27:36.359Z,1012.76
2019-05-05T02:28:36.344Z,1012.84
2019-05-05T02:29:36.355Z,1012.84
2019-05-05T02:30:36.338Z,1012.84
2019-05-05T02:31:36.311Z,1012.85
2019-05-05T02:32:36.366Z,1012.86
2019-05-05T02:33:36.328Z,1012.88
2019-05-05T02:34:36.303Z,1012.88
2019-05-05T02:35:36.283Z,1012.88
2019-05-05T02:36:36.253Z,1012.85
2019-05-05T02:37:37.184Z,1012.84
2019-05-05T02:38:36.262Z,1012.88
2019-05-05T02:39:39.308Z,1012.89
2019-05-05T02:40:36.246Z,1012.92
2019-05-05T02:41:36.200Z,1012.91
2019-05-05T02:42:36.189Z,1012.93
2019-05-05T02:43:36.195Z,1012.92
2019-05-05T02:44:36.198Z,1012.91
2019-05-05T02:45:36.707Z,1012.92
2019-05-05T02:46:36.160Z,1012.95
2019-05-05T02:47:36.134Z,1012.97
2019-05-05T02:48:36.675Z,1012.97
2019-05-05T02:49:36.216Z,1012.96
2019-05-05T02:50:51.093Z,1012.95
2019-05-05T02:51:36.097Z,1012.93
2019-05-05T02:52:36.084Z,1012.95
2019-05-05T02:53:36.070Z,1012.96
2019-05-05T02:54:36.058Z,1012.94
2019-05-05T02:55:36.074Z,1012.91
2019-05-05T02:56:36.701Z,1012.91
2019-05-05T02:57:36.028Z,1012.90
2019-05-05T02:58:36.020Z,1012.90
2019-05-05T02:59:36.687Z,1012.92
2019-05-05T03:00:36.192Z,1012.98
2019-05-05T03:01:36.698Z,1013.00
2019-05-05T03:02:35.979Z,1012.91
2019-05-05T03:03:35.970Z,1013.00
2019-05-05T03:04:35.948Z,1012.99
2019-05-05T03:05:35.955Z,1012.95
2019-05-05T03:06:35.949Z,1012.96
2019-05-05T03:07:35.954Z,1012.98
2019-05-05T03:08:35.905Z,1012.96
2019-05-05T03:09:35.909Z,1012.96
2019-05-05T03:10:35.896Z,1012.93
2019-05-05T03:11:35.908Z,1012.95
2019-05-05T03:12:35.882Z,1012.98
2019-05-05T03:13:35.868Z,1012.89
2019-05-05T03:14:35.840Z,1012.96
2019-05-05T03:15:35.840Z,1012.88
2019-05-05T03:16:35.826Z,1012.93
2019-05-05T03:17:36.677Z,1012.93
2019-05-05T03:18:36.676Z,1012.96
2019-05-05T03:19:35.802Z,1012.96
2019-05-05T03:20:35.807Z,1012.95
2019-05-05T03:21:35.764Z,1013.01
2019-05-05T03:22:35.765Z,1013.02
2019-05-05T03:23:35.749Z,1013.00
2019-05-05T03:24:35.756Z,1013.03
2019-05-05T03:25:35.732Z,1013.05
2019-05-05T03:26:35.712Z,1013.07
2019-05-05T03:27:35.699Z,1013.04
2019-05-05T03:28:36.703Z,1012.96
2019-05-05T03:29:35.681Z,1013.04
2019-05-05T03:30:35.791Z,1013.00
2019-05-05T03:31:35.675Z,1013.03
2019-05-05T03:32:36.237Z,1013.00
2019-05-05T03:33:35.650Z,1013.03
2019-05-05T03:34:35.623Z,1013.04
2019-05-05T03:35:35.630Z,1012.99
2019-05-05T03:36:35.617Z,1012.99
2019-05-05T03:37:36.185Z,1013.01
2019-05-05T03:38:35.587Z,1013.02
2019-05-05T03:39:35.570Z,1012.98
2019-05-05T03:40:35.562Z,1012.99
2019-05-05T03:41:35.694Z,1013.01
2019-05-05T03:42:35.559Z,1013.03
2019-05-05T03:43:35.532Z,1013.02
2019-05-05T03:44:35.516Z,1012.96
2019-05-05T03:45:35.517Z,1012.92
2019-05-05T03:46:35.703Z,1012.98
2019-05-05T03:47:35.479Z,1013.00
2019-05-05T03:48:36.181Z,1012.99
2019-05-05T03:49:35.484Z,1013.01
2019-05-05T03:50:35.451Z,1013.00
2019-05-05T03:51:35.464Z,1013.02
2019-05-05T03:52:35.452Z,1013.06
2019-05-05T03:53:36.178Z,1013.03
2019-05-05T03:54:35.403Z,1013.11
2019-05-05T03:55:35.398Z,1013.11
2019-05-05T03:56:35.395Z,1013.16
2019-05-05T03:57:35.394Z,1013.12
2019-05-05T03:58:36.187Z,1013.11
2019-05-05T03:59:35.391Z,1013.16
2019-05-05T04:00:35.349Z,1013.05
2019-05-05T04:01:35.351Z,1013.25
2019-05-05T04:02:35.323Z,1013.18
2019-05-05T04:03:35.310Z,1013.18
2019-05-05T04:04:35.297Z,1013.18
2019-05-05T04:05:35.287Z,1013.20
2019-05-05T04:06:35.283Z,1013.19
2019-05-05T04:07:35.276Z,1013.12
2019-05-05T04:08:35.255Z,1013.21
2019-05-05T04:09:35.264Z,1013.24
2019-05-05T04:10:36.185Z,1013.13
2019-05-05T04:11:35.224Z,1013.22
2019-05-05T04:12:35.222Z,1013.19
2019-05-05T04:13:36.184Z,1013.21
2019-05-05T04:14:35.202Z,1013.28
2019-05-05T04:15:35.202Z,1013.22
2019-05-05T04:16:35.191Z,1013.17
2019-05-05T04:17:35.227Z,1013.20
2019-05-05T04:18:35.144Z,1013.27
2019-05-05T04:19:35.136Z,1013.23
2019-05-05T04:20:35.125Z,1013.24
2019-05-05T04:21:36.801Z,1013.25
2019-05-05T04:22:35.200Z,1013.27
2019-05-05T04:23:35.121Z,1013.26
2019-05-05T04:24:35.081Z,1013.26
2019-05-05T04:25:35.179Z,1013.28
2019-05-05T04:26:35.060Z,1013.28
2019-05-05T04:27:35.208Z,1013.28
2019-05-05T04:28:35.057Z,1013.32
2019-05-05T04:29:35.028Z,1013.33
2019-05-05T04:30:35.016Z,1013.38
2019-05-05T04:31:35.003Z,1013.35
2019-05-05T04:32:35.021Z,1013.36
2019-05-05T04:33:35.035Z,1013.38
2019-05-05T04:34:34.972Z,1013.37
2019-05-05T04:35:34.959Z,1013.29
2019-05-05T04:36:34.952Z,1013.38
2019-05-05T04:37:35.683Z,1013.37
2019-05-05T04:38:34.949Z,1013.40
2019-05-05T04:39:35.685Z,1013.37
2019-05-05T04:40:34.905Z,1013.38
2019-05-05T04:41:34.895Z,1013.34
2019-05-05T04:42:34.885Z,1013.40
2019-05-05T04:43:34.898Z,1013.44
2019-05-05T04:44:34.945Z,1013.45
2019-05-05T04:45:34.917Z,1013.44
2019-05-05T04:46:34.839Z,1013.39
2019-05-05T04:47:35.687Z,1013.51
2019-05-05T04:48:34.857Z,1013.53
2019-05-05T04:49:34.808Z,1013.56
2019-05-05T04:50:35.683Z,1013.55
2019-05-05T04:51:46.987Z,1013.57
2019-05-05T04:52:34.778Z,1013.54
2019-05-05T04:53:35.217Z,1013.53
2019-05-05T04:54:34.757Z,1013.54
2019-05-05T04:55:34.762Z,1013.57
2019-05-05T04:56:35.685Z,1013.58
2019-05-05T04:57:35.436Z,1013.56
2019-05-05T04:58:35.216Z,1013.59
2019-05-05T04:59:35.689Z,1013.55
2019-05-05T05:00:35.693Z,1013.57
2019-05-05T05:01:35.188Z,1013.57
2019-05-05T05:02:35.194Z,1013.58
2019-05-05T05:03:34.811Z,1013.60
2019-05-05T05:04:34.643Z,1013.57
2019-05-05T05:05:34.649Z,1013.58
2019-05-05T05:06:35.183Z,1013.64
2019-05-05T05:07:35.181Z,1013.63
2019-05-05T05:08:34.620Z,1013.62
2019-05-05T05:09:34.592Z,1013.62
2019-05-05T05:10:34.739Z,1013.69
2019-05-05T05:11:34.566Z,1013.67
2019-05-05T05:12:34.571Z,1013.68
2019-05-05T05:13:34.896Z,1013.69
2019-05-05T05:14:34.579Z,1013.69
2019-05-05T05:15:34.531Z,1013.74
2019-05-05T05:16:35.682Z,1013.71
2019-05-05T05:17:35.193Z,1013.76
2019-05-05T05:18:34.602Z,1013.74
2019-05-05T05:19:35.211Z,1013.79
2019-05-05T05:20:34.471Z,1013.79
2019-05-05T05:21:34.458Z,1013.80
2019-05-05T05:22:34.447Z,1013.84
2019-05-05T05:23:34.716Z,1013.83
2019-05-05T05:24:34.515Z,1013.88
2019-05-05T05:25:34.777Z,1013.90
2019-05-05T05:26:34.407Z,1013.87
2019-05-05T05:27:34.401Z,1013.89
2019-05-05T05:28:34.405Z,1013.88
2019-05-05T05:29:34.666Z,1013.95
2019-05-05T05:30:34.825Z,1013.99
2019-05-05T05:31:34.357Z,1013.99
2019-05-05T05:32:34.340Z,1013.98
2019-05-05T05:33:34.711Z,1013.99
2019-05-05T05:34:34.545Z,1014.02
2019-05-05T05:35:35.186Z,1014.02
2019-05-05T05:36:34.317Z,1014.05
2019-05-05T05:37:34.395Z,1014.12
2019-05-05T05:38:34.754Z,1014.04
2019-05-05T05:39:34.284Z,1014.07
2019-05-05T05:40:35.204Z,1014.04
2019-05-05T05:41:34.433Z,1014.10
2019-05-05T05:42:35.188Z,1014.16
2019-05-05T05:43:34.225Z,1014.15
2019-05-05T05:44:34.733Z,1014.16
2019-05-05T05:45:34.405Z,1014.22
2019-05-05T05:46:34.191Z,1014.25
2019-05-05T05:47:34.697Z,1014.29
2019-05-05T05:48:34.361Z,1014.33
2019-05-05T05:49:34.683Z,1014.30
2019-05-05T05:50:34.151Z,1014.34
2019-05-05T05:51:34.260Z,1014.27
2019-05-05T05:52:34.439Z,1014.25
2019-05-05T05:53:34.889Z,1014.33
2019-05-05T05:54:34.171Z,1014.35
2019-05-05T05:55:34.354Z,1014.38
2019-05-05T05:56:34.385Z,1014.37
2019-05-05T05:57:34.711Z,1014.40
2019-05-05T05:58:34.079Z,1014.40
2019-05-05T05:59:34.204Z,1014.36
2019-05-05T06:00:34.494Z,1014.38
2019-05-05T06:01:34.628Z,1014.41
2019-05-05T06:02:34.024Z,1014.43
2019-05-05T06:03:34.119Z,1014.52
2019-05-05T06:04:34.200Z,1014.43
2019-05-05T06:05:34.690Z,1014.55
2019-05-05T06:06:34.681Z,1014.52
2019-05-05T06:07:33.969Z,1014.55
2019-05-05T06:08:34.716Z,1014.55
2019-05-05T06:09:34.575Z,1014.55
2019-05-05T06:10:34.702Z,1014.62
2019-05-05T06:11:34.407Z,1014.65
2019-05-05T06:12:33.910Z,1014.62
2019-05-05T06:13:33.900Z,1014.62
2019-05-05T06:14:34.317Z,1014.68
2019-05-05T06:15:34.695Z,1014.62
2019-05-05T06:16:34.266Z,1014.64
2019-05-05T06:17:34.430Z,1014.61
2019-05-05T06:18:34.553Z,1014.66
2019-05-05T06:19:34.003Z,1014.69
2019-05-05T06:20:34.433Z,1014.66
2019-05-05T06:21:33.937Z,1014.67
2019-05-05T06:22:34.363Z,1014.73
2019-05-05T06:23:34.435Z,1014.70
2019-05-05T06:24:34.559Z,1014.73
2019-05-05T06:25:34.375Z,1014.69
2019-05-05T06:26:34.417Z,1014.69
2019-05-05T06:27:34.337Z,1014.72
2019-05-05T06:28:34.201Z,1014.70
2019-05-05T06:29:34.710Z,1014.73
2019-05-05T06:30:33.880Z,1014.73
2019-05-05T06:31:34.261Z,1014.74
2019-05-05T06:32:34.713Z,1014.74
2019-05-05T06:33:34.825Z,1014.76
2019-05-05T06:34:33.964Z,1014.74
2019-05-05T06:35:33.967Z,1014.71
2019-05-05T06:36:34.142Z,1014.71
2019-05-05T06:37:34.304Z,1014.73
2019-05-05T06:38:34.565Z,1014.75
2019-05-05T06:39:33.673Z,1014.72
2019-05-05T06:40:34.208Z,1014.76
2019-05-05T06:41:34.289Z,1014.72
2019-05-05T06:42:34.286Z,1014.75
2019-05-05T06:43:34.794Z,1014.78
2019-05-05T06:44:33.898Z,1014.79
2019-05-05T06:45:34.315Z,1014.80
2019-05-05T06:46:34.253Z,1014.80
2019-05-05T06:47:34.009Z,1014.82
2019-05-05T06:48:34.363Z,1014.80
2019-05-05T06:49:34.529Z,1014.80
2019-05-05T06:50:34.479Z,1014.80
2019-05-05T06:51:34.192Z,1014.79
2019-05-05T06:52:43.796Z,1014.80
2019-05-05T06:53:34.178Z,1014.79
2019-05-05T06:54:34.831Z,1014.84
2019-05-05T06:55:34.094Z,1014.87
2019-05-05T06:56:34.303Z,1014.86
2019-05-05T06:57:34.325Z,1014.87
2019-05-05T06:58:34.806Z,1014.85
2019-05-05T06:59:34.894Z,1014.84
2019-05-05T07:00:34.773Z,1014.92
2019-05-05T07:01:33.879Z,1014.90
2019-05-05T07:02:34.276Z,1014.95
2019-05-05T07:03:33.777Z,1014.90
2019-05-05T07:04:33.996Z,1014.93
2019-05-05T07:05:34.092Z,1014.92
2019-05-05T07:06:34.355Z,1014.91
2019-05-05T07:07:34.440Z,1014.92
2019-05-05T07:08:34.688Z,1014.91
2019-05-05T07:09:33.696Z,1014.92
2019-05-05T07:10:33.858Z,1014.96
2019-05-05T07:11:34.258Z,1014.91
2019-05-05T07:12:34.713Z,1014.91
2019-05-05T07:13:34.198Z,1014.89
2019-05-05T07:14:34.224Z,1014.89
2019-05-05T07:15:34.285Z,1014.86
2019-05-05T07:16:34.513Z,1014.91
2019-05-05T07:17:33.818Z,1014.85
2019-05-05T07:18:34.100Z,1014.82
2019-05-05T07:19:34.506Z,1014.82
2019-05-05T07:20:34.691Z,1014.81
2019-05-05T07:21:34.256Z,1014.83
2019-05-05T07:22:34.685Z,1014.83
2019-05-05T07:23:34.152Z,1014.85
2019-05-05T07:24:34.420Z,1014.87
2019-05-05T07:25:40.677Z,1014.83
2019-05-05T07:26:34.069Z,1014.84
2019-05-05T07:27:33.833Z,1014.87
2019-05-05T07:28:34.203Z,1014.83
2019-05-05T07:29:34.285Z,1014.85
2019-05-05T07:30:33.587Z,1014.87
2019-05-05T07:31:34.236Z,1014.84
2019-05-05T07:32:33.800Z,1014.89
2019-05-05T07:33:34.571Z,1014.89
2019-05-05T07:34:33.519Z,1014.89
2019-05-05T07:35:34.488Z,1014.90
2019-05-05T07:36:34.073Z,1014.88
2019-05-05T07:37:34.366Z,1014.83
2019-05-05T07:38:33.704Z,1014.92
2019-05-05T07:39:34.102Z,1014.89
2019-05-05T07:40:34.576Z,1014.81
2019-05-05T07:41:34.057Z,1014.81
2019-05-05T07:42:33.698Z,1014.80
2019-05-05T07:43:34.463Z,1014.82
2019-05-05T07:44:33.899Z,1014.81
2019-05-05T07:45:34.340Z,1014.81
2019-05-05T07:46:34.617Z,1014.89
2019-05-05T07:47:34.223Z,1014.86
2019-05-05T07:48:33.620Z,1014.84
2019-05-05T07:49:33.617Z,1014.86
2019-05-05T07:50:35.907Z,1014.81
2019-05-05T07:51:33.788Z,1014.85
2019-05-05T07:52:34.373Z,1014.78
2019-05-05T07:53:33.534Z,1014.86
2019-05-05T07:54:34.186Z,1014.77
2019-05-05T07:55:34.333Z,1014.76
2019-05-05T07:56:34.390Z,1014.85
2019-05-05T07:57:34.208Z,1014.80
2019-05-05T07:58:34.540Z,1014.82
2019-05-05T07:59:34.102Z,1014.78
2019-05-05T08:00:34.268Z,1014.82
2019-05-05T08:01:33.647Z,1014.84
2019-05-05T08:02:33.886Z,1014.83
2019-05-05T08:03:33.881Z,1014.84
2019-05-05T08:04:34.652Z,1014.81
2019-05-05T08:05:33.553Z,1014.84
2019-05-05T08:06:33.951Z,1014.81
2019-05-05T08:07:34.039Z,1014.84
2019-05-05T08:08:33.483Z,1014.72
2019-05-05T08:09:33.859Z,1014.78
2019-05-05T08:10:34.395Z,1014.79
2019-05-05T08:11:34.266Z,1014.73
2019-05-05T08:12:34.148Z,1014.79
2019-05-05T08:13:33.669Z,1014.84
2019-05-05T08:14:33.702Z,1014.79
2019-05-05T08:15:34.316Z,1014.79
2019-05-05T08:16:33.701Z,1014.87
2019-05-05T08:17:34.104Z,1014.77
2019-05-05T08:18:34.466Z,1014.83
2019-05-05T08:19:34.495Z,1014.81
2019-05-05T08:20:33.882Z,1014.86
2019-05-05T08:21:34.635Z,1014.89
2019-05-05T08:22:33.972Z,1014.88
2019-05-05T08:23:35.358Z,1014.82
2019-05-05T08:24:33.710Z,1014.89
2019-05-05T08:25:37.493Z,1014.91
2019-05-05T08:26:33.663Z,1014.87
2019-05-05T08:27:34.013Z,1014.80
2019-05-05T08:28:34.181Z,1014.78
2019-05-05T08:29:34.396Z,1014.78
2019-05-05T08:30:33.675Z,1014.72
2019-05-05T08:31:33.941Z,1014.84
2019-05-05T08:32:33.522Z,1014.80
2019-05-05T08:33:33.572Z,1014.80
2019-05-05T08:34:33.958Z,1014.86
2019-05-05T08:35:34.267Z,1014.79
2019-05-05T08:36:33.842Z,1014.83
2019-05-05T08:37:34.216Z,1014.84
2019-05-05T08:38:34.589Z,1014.82
2019-05-05T08:39:34.346Z,1014.75
2019-05-05T08:40:34.406Z,1014.80
2019-05-05T08:41:33.862Z,1014.77
2019-05-05T08:42:33.905Z,1014.79
2019-05-05T08:43:34.581Z,1014.80
2019-05-05T08:44:34.279Z,1014.82
2019-05-05T08:45:34.361Z,1014.76
2019-05-05T08:46:34.066Z,1014.83
2019-05-05T08:47:34.423Z,1014.84
2019-05-05T08:48:34.156Z,1014.81
2019-05-05T08:49:34.563Z,1014.81
2019-05-05T08:50:32.204Z,1014.81
2019-05-05T08:51:33.943Z,1014.88
2019-05-05T08:52:34.168Z,1014.90
2019-05-05T08:53:42.575Z,1014.86
2019-05-05T08:54:34.123Z,1014.85
2019-05-05T08:55:33.947Z,1014.83
2019-05-05T08:56:34.270Z,1014.90
2019-05-05T08:57:33.999Z,1014.90
2019-05-05T08:58:34.272Z,1014.86
2019-05-05T08:59:33.735Z,1014.85
2019-05-05T09:00:33.842Z,1014.87
2019-05-05T09:01:34.200Z,1014.88
2019-05-05T09:02:34.001Z,1014.87
2019-05-05T09:03:33.662Z,1014.83
2019-05-05T09:04:33.990Z,1014.88
2019-05-05T09:05:34.155Z,1014.80
2019-05-05T09:06:34.086Z,1014.86
2019-05-05T09:07:33.643Z,1014.87
2019-05-05T09:08:34.713Z,1014.90
2019-05-05T09:09:33.518Z,1014.86
2019-05-05T09:10:34.092Z,1014.87
2019-05-05T09:11:33.810Z,1014.95
2019-05-05T09:12:33.789Z,1014.96
2019-05-05T09:13:33.981Z,1014.97
2019-05-05T09:14:34.430Z,1014.99
2019-05-05T09:15:33.730Z,1014.91
2019-05-05T09:16:33.494Z,1014.99
2019-05-05T09:17:33.636Z,1014.94
2019-05-05T09:18:33.993Z,1015.05
2019-05-05T09:19:31.901Z,1015.05
2019-05-05T09:20:31.901Z,1014.97
2019-05-05T09:21:31.876Z,1015.08
2019-05-05T09:22:31.862Z,1015.03
2019-05-05T09:23:34.569Z,1015.07
2019-05-05T09:24:34.096Z,1015.02
2019-05-05T09:25:34.029Z,1015.03
2019-05-05T09:26:34.403Z,1014.92
2019-05-05T09:27:33.293Z,1014.97
2019-05-05T09:28:34.013Z,1014.95
2019-05-05T09:29:31.794Z,1014.98
2019-05-05T09:30:33.889Z,1014.94
2019-05-05T09:31:34.382Z,1014.99
2019-05-05T09:32:31.754Z,1015.07
2019-05-05T09:33:33.760Z,1015.03
2019-05-05T09:34:33.985Z,1014.96
2019-05-05T09:35:31.733Z,1015.02
2019-05-05T09:36:34.800Z,1014.99
2019-05-05T09:37:33.948Z,1015.00
2019-05-05T09:38:31.688Z,1014.97
2019-05-05T09:39:31.691Z,1014.92
2019-05-05T09:40:33.473Z,1014.89
2019-05-05T09:41:34.009Z,1014.91
2019-05-05T09:42:31.645Z,1014.92
2019-05-05T09:43:31.640Z,1014.95
2019-05-05T09:44:31.717Z,1014.89
2019-05-05T09:45:33.602Z,1014.91
2019-05-05T09:46:31.655Z,1014.86
2019-05-05T09:47:31.591Z,1014.98
2019-05-05T09:48:33.413Z,1014.95
2019-05-05T09:49:33.728Z,1014.99
2019-05-05T09:50:31.573Z,1015.00
2019-05-05T09:51:31.572Z,1014.97
2019-05-05T09:52:33.660Z,1014.89
2019-05-05T09:53:31.526Z,1014.93
2019-05-05T09:54:31.544Z,1014.95
2019-05-05T09:55:33.446Z,1014.99
2019-05-05T09:56:31.504Z,1014.98
2019-05-05T09:57:31.515Z,1015.00
2019-05-05T09:58:31.481Z,1014.95
2019-05-05T09:59:31.727Z,1015.00
2019-05-05T10:00:33.576Z,1014.93
2019-05-05T10:01:33.904Z,1015.03
2019-05-05T10:02:31.586Z,1015.02
2019-05-05T10:03:31.421Z,1015.01
2019-05-05T10:04:31.718Z,1015.03
2019-05-05T10:05:31.412Z,1015.03
2019-05-05T10:06:33.215Z,1015.02
2019-05-05T10:07:31.389Z,1015.01
2019-05-05T10:08:34.083Z,1015.02
2019-05-05T10:09:31.375Z,1015.04
2019-05-05T10:10:33.567Z,1014.95
2019-05-05T10:11:31.334Z,1015.04
2019-05-05T10:12:31.327Z,1015.04
2019-05-05T10:13:33.208Z,1015.04
2019-05-05T10:14:31.313Z,1015.03
2019-05-05T10:15:31.314Z,1015.02
2019-05-05T10:16:31.285Z,1015.01
2019-05-05T10:17:33.513Z,1015.00
2019-05-05T10:18:31.266Z,1015.07
2019-05-05T10:19:31.293Z,1015.00
2019-05-05T10:20:31.733Z,1015.02
2019-05-05T10:21:31.230Z,1015.04
2019-05-05T10:22:31.221Z,1015.04
2019-05-05T10:23:31.209Z,1015.05
2019-05-05T10:24:31.391Z,1015.05
2019-05-05T10:25:31.239Z,1014.95
2019-05-05T10:26:31.193Z,1014.98
2019-05-05T10:27:42.658Z,1015.00
2019-05-05T10:28:31.155Z,1014.99
2019-05-05T10:29:31.151Z,1015.01
2019-05-05T10:30:31.146Z,1014.96
2019-05-05T10:31:31.724Z,1014.90
2019-05-05T10:32:31.715Z,1014.96
2019-05-05T10:33:31.100Z,1014.94
2019-05-05T10:34:31.090Z,1014.94
2019-05-05T10:35:31.223Z,1014.98
2019-05-05T10:36:31.080Z,1014.95
2019-05-05T10:37:31.078Z,1014.92
2019-05-05T10:38:31.706Z,1014.99
2019-05-05T10:39:31.038Z,1014.95
2019-05-05T10:40:31.042Z,1014.98
2019-05-05T10:41:31.032Z,1015.00
2019-05-05T10:42:31.018Z,1014.97
2019-05-05T10:43:31.001Z,1014.97
2019-05-05T10:44:30.987Z,1015.01
2019-05-05T10:45:31.219Z,1015.01
2019-05-05T10:46:30.974Z,1014.99
2019-05-05T10:47:30.951Z,1015.00
2019-05-05T10:48:33.906Z,1014.95
2019-05-05T10:49:30.947Z,1014.92
2019-05-05T10:50:31.225Z,1014.97
2019-05-05T10:51:31.711Z,1014.98
2019-05-05T10:52:30.897Z,1014.95
2019-05-05T10:53:31.706Z,1015.02
2019-05-05T10:54:41.623Z,1014.89
2019-05-05T10:55:30.880Z,1014.99
2019-05-05T10:56:30.857Z,1014.97
2019-05-05T10:57:30.846Z,1015.02
2019-05-05T10:58:30.841Z,1014.91
2019-05-05T10:59:30.829Z,1014.99
2019-05-05T11:00:33.708Z,1014.97
2019-05-05T11:01:30.805Z,1014.95
2019-05-05T11:02:31.706Z,1014.98
2019-05-05T11:03:30.809Z,1014.91
2019-05-05T11:04:33.529Z,1014.95
2019-05-05T11:05:30.763Z,1014.97
2019-05-05T11:06:30.759Z,1015.02
2019-05-05T11:07:30.741Z,1015.00
2019-05-05T11:08:31.018Z,1014.91
2019-05-05T11:09:30.717Z,1015.03
2019-05-05T11:10:30.705Z,1015.00
2019-05-05T11:11:30.781Z,1014.98
2019-05-05T11:12:30.701Z,1014.90
2019-05-05T11:13:30.674Z,1014.95
2019-05-05T11:14:30.681Z,1014.98
2019-05-05T11:15:30.664Z,1014.99
2019-05-05T11:16:30.752Z,1015.01
2019-05-05T11:17:30.638Z,1015.07
2019-05-05T11:18:30.620Z,1015.06
2019-05-05T11:19:33.463Z,1015.05
2019-05-05T11:20:30.607Z,1015.07
2019-05-05T11:21:30.721Z,1015.10
2019-05-05T11:22:30.595Z,1015.12
2019-05-05T11:23:30.577Z,1015.10
2019-05-05T11:24:31.211Z,1015.17
2019-05-05T11:25:30.545Z,1015.19
2019-05-05T11:26:30.544Z,1015.20
2019-05-05T11:27:30.544Z,1015.25
2019-05-05T11:28:30.535Z,1015.27
2019-05-05T11:29:30.506Z,1015.29
2019-05-05T11:30:30.495Z,1015.37
2019-05-05T11:31:30.489Z,1015.35
2019-05-05T11:32:30.480Z,1015.36
2019-05-05T11:33:30.461Z,1015.44
2019-05-05T11:34:31.211Z,1015.42
2019-05-05T11:35:30.448Z,1015.42
2019-05-05T11:36:30.721Z,1015.41
2019-05-05T11:37:31.225Z,1015.42
2019-05-05T11:38:30.405Z,1015.46
2019-05-05T11:39:30.391Z,1015.44
2019-05-05T11:40:31.235Z,1015.39
2019-05-05T11:41:30.730Z,1015.41
2019-05-05T11:42:30.377Z,1015.37
2019-05-05T11:43:30.353Z,1015.36
2019-05-05T11:44:30.339Z,1015.41
2019-05-05T11:45:30.330Z,1015.35
2019-05-05T11:46:31.217Z,1015.40
2019-05-05T11:47:30.330Z,1015.40
2019-05-05T11:48:30.296Z,1015.38
2019-05-05T11:49:31.212Z,1015.42
2019-05-05T11:50:30.295Z,1015.42
2019-05-05T11:51:31.209Z,1015.37
2019-05-05T11:52:30.742Z,1015.29
2019-05-05T11:53:30.243Z,1015.41
2019-05-05T11:54:31.211Z,1015.36
2019-05-05T11:55:30.239Z,1015.32
2019-05-05T11:56:30.720Z,1015.34
2019-05-05T11:57:30.232Z,1015.32
2019-05-05T11:58:30.190Z,1015.29
2019-05-05T11:59:30.734Z,1015.32
2019-05-05T12:00:30.170Z,1015.31
2019-05-05T12:01:30.153Z,1015.33
2019-05-05T12:02:30.249Z,1015.32
2019-05-05T12:03:30.133Z,1015.26
2019-05-05T12:04:30.125Z,1015.29
2019-05-05T12:05:30.112Z,1015.29